Time;durP1;ratioP1;P1;durP2;ratioP2;P2;SDS_P1;SDS_P2;PMS_P1;PMS_P2;Temp;Humidity;BMP_temperature;BMP_pressure;BME280_temperature;BME280_humidity;BME280_pressure;Samples;Min_cycle;Max_cycle;Signal;HPM_P1;HPM_P2
2022/04/03 00:00:37;;;;;;;6.63;2.47;;;-1.30;99.90;;;;;;5092918;28;20123;-72
2022/04/03 00:03:04;;;;;;;8.88;2.88;;;-1.30;99.90;;;;;;5113136;28;20071;-72
2022/04/03 00:05:35;;;;;;;4.93;2.65;;;-1.30;99.90;;;;;;5114091;28;20548;-72
2022/04/03 00:08:01;;;;;;;8.40;2.78;;;-1.20;99.90;;;;;;5098098;28;20127;-72
2022/04/03 00:10:27;;;;;;;6.93;3.30;;;-1.20;99.90;;;;;;5074683;28;20032;-72
2022/04/03 00:12:52;;;;;;;4.82;3.03;;;-1.20;99.90;;;;;;5088617;28;20055;-72
2022/04/03 00:15:18;;;;;;;5.45;2.83;;;-1.20;99.90;;;;;;5054580;28;20042;-72
2022/04/03 00:17:45;;;;;;;7.28;3.00;;;-1.10;99.90;;;;;;5103180;28;20042;-72
2022/04/03 00:20:12;;;;;;;6.43;3.55;;;-1.10;99.90;;;;;;5094958;28;20044;-72
2022/04/03 00:22:38;;;;;;;6.75;3.25;;;-1.10;99.90;;;;;;5082004;28;20044;-72
2022/04/03 00:25:05;;;;;;;7.40;3.20;;;-1.10;99.90;;;;;;5075590;28;20075;-72
2022/04/03 00:27:31;;;;;;;5.55;2.78;;;-1.00;99.90;;;;;;5103811;28;20044;-72
2022/04/03 00:29:57;;;;;;;6.32;2.85;;;-0.90;99.90;;;;;;5078062;28;20056;-72
2022/04/03 00:32:23;;;;;;;6.70;3.00;;;-0.90;99.90;;;;;;5113707;28;20043;-72
2022/04/03 00:34:49;;;;;;;8.23;2.90;;;-0.80;99.90;;;;;;5077793;28;20440;-72
2022/04/03 00:37:15;;;;;;;5.55;2.55;;;-0.70;99.90;;;;;;5094243;28;20044;-72
2022/04/03 00:39:41;;;;;;;5.50;2.63;;;-0.70;99.90;;;;;;5075478;28;20051;-72
2022/04/03 00:42:08;;;;;;;4.35;2.40;;;-0.60;99.90;;;;;;5091085;28;20048;-72
2022/04/03 00:44:35;;;;;;;4.72;1.92;;;-0.50;99.90;;;;;;5096171;28;20059;-72
2022/04/03 00:47:02;;;;;;;3.78;2.50;;;-0.50;99.90;;;;;;5080049;28;20045;-72
2022/04/03 00:49:29;;;;;;;2.92;2.58;;;-0.40;99.90;;;;;;5115367;28;20075;-72
2022/04/03 00:51:55;;;;;;;6.45;2.45;;;-0.30;99.90;;;;;;5086495;28;20106;-72
2022/04/03 00:54:20;;;;;;;6.78;1.88;;;-0.30;99.90;;;;;;5067078;28;20043;-72
2022/04/03 00:56:46;;;;;;;6.25;2.40;;;-0.20;99.90;;;;;;5096335;28;20044;-72
2022/04/03 00:59:14;;;;;;;3.83;2.25;;;-0.20;99.90;;;;;;5096859;28;20045;-72
2022/04/03 01:01:41;;;;;;;4.03;2.47;;;-0.10;99.90;;;;;;5097150;28;20050;-72
2022/04/03 01:04:07;;;;;;;7.50;2.10;;;-0.10;99.90;;;;;;5096210;28;20036;-72
2022/04/03 01:06:33;;;;;;;6.85;2.33;;;0.00;99.90;;;;;;5095866;28;20123;-72
2022/04/03 01:08:59;;;;;;;5.60;2.30;;;0.10;99.90;;;;;;5096846;28;20111;-72
2022/04/03 01:11:25;;;;;;;4.05;2.15;;;0.10;99.90;;;;;;5096066;28;20087;-72
2022/04/03 01:13:52;;;;;;;3.60;2.17;;;0.20;99.90;;;;;;5096602;28;20055;-72
2022/04/03 01:16:19;;;;;;;2.90;1.92;;;0.20;99.90;;;;;;5097050;28;20126;-72
2022/04/03 01:18:45;;;;;;;4.15;1.95;;;0.20;99.90;;;;;;5096294;28;20044;-72
2022/04/03 01:21:11;;;;;;;6.60;2.13;;;0.20;99.90;;;;;;5096445;28;20036;-72
2022/04/03 01:23:38;;;;;;;6.75;2.60;;;0.30;99.90;;;;;;5096126;28;20177;-72
2022/04/03 01:26:03;;;;;;;3.25;2.20;;;0.30;99.90;;;;;;5078040;28;20032;-72
2022/04/03 01:28:29;;;;;;;2.20;1.92;;;0.30;99.90;;;;;;5095384;28;20055;-72
2022/04/03 01:30:55;;;;;;;3.30;2.15;;;0.30;99.90;;;;;;5094142;28;20484;-72
2022/04/03 01:33:21;;;;;;;4.38;2.20;;;0.30;99.90;;;;;;5078375;28;20051;-72
2022/04/03 01:35:47;;;;;;;6.15;2.08;;;0.40;99.90;;;;;;5096371;28;20047;-72
2022/04/03 01:38:13;;;;;;;2.60;2.08;;;0.40;99.90;;;;;;5094298;28;20491;-72
2022/04/03 01:40:38;;;;;;;4.15;1.90;;;0.50;99.90;;;;;;5096577;28;20467;-72
2022/04/03 01:43:10;;;;;;;3.08;2.03;;;0.50;99.90;;;;;;5094717;28;20127;-72
2022/04/03 01:45:40;;;;;;;6.10;2.90;;;0.50;99.90;;;;;;5095072;28;20094;-72
2022/04/03 01:48:07;;;;;;;6.68;2.90;;;0.50;99.90;;;;;;5095177;28;20097;-72
2022/04/03 01:50:32;;;;;;;6.47;2.33;;;0.50;99.90;;;;;;5094741;28;20051;-72
2022/04/03 01:52:58;;;;;;;3.58;2.35;;;0.50;99.90;;;;;;5097070;28;20052;-72
2022/04/03 01:55:25;;;;;;;4.07;2.53;;;0.50;99.90;;;;;;5078542;28;20071;-72
2022/04/03 01:57:55;;;;;;;5.15;2.35;;;0.50;99.90;;;;;;5096038;28;20123;-72
2022/04/03 02:00:22;;;;;;;3.70;2.45;;;0.50;99.90;;;;;;5095985;28;20499;-72
2022/04/03 02:02:50;;;;;;;6.15;2.85;;;0.40;99.90;;;;;;5116595;28;20107;-72
2022/04/03 02:05:16;;;;;;;5.78;2.67;;;0.40;99.90;;;;;;5081318;28;20559;-72
2022/04/03 02:07:42;;;;;;;3.17;2.00;;;0.40;99.90;;;;;;5076879;28;20063;-72
2022/04/03 02:10:09;;;;;;;4.85;2.20;;;0.40;99.90;;;;;;5077506;28;20048;-72
2022/04/03 02:12:40;;;;;;;5.97;2.53;;;0.50;99.90;;;;;;5095892;28;20082;-72
2022/04/03 02:15:15;;;;;;;4.88;2.38;;;0.50;99.90;;;;;;5098021;28;20108;-72
2022/04/03 02:17:41;;;;;;;4.95;1.98;;;0.50;99.90;;;;;;5098542;28;20119;-72
2022/04/03 02:20:10;;;;;;;3.70;2.85;;;0.50;99.90;;;;;;5094793;28;20120;-72
2022/04/03 02:22:36;;;;;;;3.70;1.95;;;0.50;99.90;;;;;;5116027;28;20047;-72
2022/04/03 02:25:04;;;;;;;2.45;2.20;;;0.50;99.90;;;;;;5110258;28;20505;-72
2022/04/03 02:27:30;;;;;;;3.42;1.92;;;0.40;99.90;;;;;;5076517;28;20483;-72
2022/04/03 02:29:56;;;;;;;3.25;1.75;;;0.40;99.90;;;;;;5080577;28;20494;-72
2022/04/03 02:32:23;;;;;;;4.88;2.25;;;0.40;99.90;;;;;;5116485;28;20091;-72
2022/04/03 02:34:48;;;;;;;4.20;2.90;;;0.30;99.90;;;;;;5094358;28;20083;-72
2022/04/03 02:37:14;;;;;;;3.20;2.00;;;0.30;99.90;;;;;;5095337;28;20079;-72
2022/04/03 02:39:41;;;;;;;5.00;2.05;;;0.30;99.90;;;;;;5095350;28;20040;-72
2022/04/03 02:42:07;;;;;;;2.33;1.92;;;0.30;99.90;;;;;;5074416;28;20052;-72
2022/04/03 02:44:34;;;;;;;5.10;2.50;;;0.20;99.90;;;;;;5075005;28;20056;-72
2022/04/03 02:47:00;;;;;;;2.90;1.90;;;0.20;99.90;;;;;;5113000;28;20502;-72
2022/04/03 02:49:26;;;;;;;3.88;1.95;;;0.10;99.90;;;;;;5096510;28;20051;-72
2022/04/03 02:51:52;;;;;;;2.90;2.08;;;0.10;99.90;;;;;;5081035;28;20056;-72
2022/04/03 02:54:19;;;;;;;3.40;2.15;;;0.00;99.90;;;;;;5057288;28;20055;-72
2022/04/03 02:56:44;;;;;;;3.58;2.22;;;0.00;99.90;;;;;;5089209;28;20127;-72
2022/04/03 02:59:10;;;;;;;4.95;2.90;;;0.00;99.90;;;;;;5095054;28;20148;-72
2022/04/03 03:01:36;;;;;;;5.47;1.92;;;-0.10;99.90;;;;;;5094521;28;20043;-72
2022/04/03 03:04:01;;;;;;;4.75;2.13;;;-0.10;99.90;;;;;;5094398;28;20063;-72
2022/04/03 03:06:27;;;;;;;8.63;2.28;;;-0.10;99.90;;;;;;5093004;28;20083;-72
2022/04/03 03:08:53;;;;;;;3.17;1.98;;;-0.20;99.90;;;;;;5094023;28;20047;-72
2022/04/03 03:11:19;;;;;;;4.00;2.10;;;-0.20;99.90;;;;;;5092323;28;20048;-72
2022/04/03 03:13:44;;;;;;;6.60;2.42;;;-0.20;99.90;;;;;;5094563;28;20036;-72
2022/04/03 03:16:10;;;;;;;5.00;2.28;;;-0.20;99.90;;;;;;5093419;28;20047;-72
2022/04/03 03:18:36;;;;;;;2.65;2.08;;;-0.20;99.90;;;;;;5093372;28;20040;-72
2022/04/03 03:21:02;;;;;;;4.60;2.40;;;-0.20;99.90;;;;;;5092914;28;20105;-72
2022/04/03 03:23:29;;;;;;;3.40;2.40;;;-0.20;99.90;;;;;;5092413;28;20044;-72
2022/04/03 03:25:55;;;;;;;3.08;2.05;;;-0.10;99.90;;;;;;5092902;28;20489;-72
2022/04/03 03:28:21;;;;;;;6.63;2.53;;;-0.10;99.90;;;;;;5093295;28;20044;-72
2022/04/03 03:30:47;;;;;;;4.15;2.28;;;-0.10;99.90;;;;;;5091893;28;20073;-72
2022/04/03 03:33:12;;;;;;;3.63;2.05;;;0.00;99.90;;;;;;5093131;28;20052;-72
2022/04/03 03:35:38;;;;;;;1.92;1.70;;;0.00;99.90;;;;;;5092678;28;20075;-72
2022/04/03 03:38:04;;;;;;;3.13;2.17;;;0.00;99.90;;;;;;5092174;28;20059;-72
2022/04/03 03:40:30;;;;;;;9.25;3.33;;;0.00;99.90;;;;;;5093040;28;20055;-72
2022/04/03 03:42:56;;;;;;;5.25;2.47;;;0.00;99.90;;;;;;5093978;28;20083;-72
2022/04/03 03:45:21;;;;;;;3.00;1.98;;;0.00;99.90;;;;;;5092080;28;20051;-72
2022/04/03 03:47:48;;;;;;;3.42;2.10;;;0.00;99.90;;;;;;5091992;28;20056;-72
2022/04/03 03:50:15;;;;;;;7.22;1.90;;;0.00;99.90;;;;;;5092935;28;20051;-72
2022/04/03 03:52:42;;;;;;;5.25;2.50;;;0.00;99.90;;;;;;5091334;28;20109;-72
2022/04/03 03:55:08;;;;;;;2.90;1.90;;;0.00;99.90;;;;;;5092634;28;20058;-72
2022/04/03 03:57:34;;;;;;;3.90;1.80;;;0.00;99.90;;;;;;5092387;28;20094;-72
2022/04/03 04:00:00;;;;;;;4.93;2.10;;;0.00;99.90;;;;;;5093119;28;20044;-72
2022/04/03 04:02:27;;;;;;;7.38;1.98;;;-0.10;99.90;;;;;;5093441;28;20048;-72
2022/04/03 04:04:52;;;;;;;5.13;2.08;;;-0.10;99.90;;;;;;5074251;28;20039;-72
2022/04/03 04:07:18;;;;;;;4.30;1.92;;;-0.10;99.90;;;;;;5091088;28;20154;-72
2022/04/03 04:09:44;;;;;;;3.78;1.85;;;0.00;99.90;;;;;;5091474;28;20043;-72
2022/04/03 04:12:10;;;;;;;3.85;1.95;;;-0.10;99.90;;;;;;5092728;28;20040;-72
2022/04/03 04:14:38;;;;;;;3.55;1.90;;;-0.10;99.90;;;;;;5091727;28;20032;-72
2022/04/03 04:17:06;;;;;;;4.28;2.00;;;-0.10;99.90;;;;;;5092074;28;20052;-72
2022/04/03 04:19:31;;;;;;;4.50;2.25;;;-0.20;99.90;;;;;;5090976;28;20043;-72
2022/04/03 04:21:57;;;;;;;3.28;1.88;;;-0.20;99.90;;;;;;5092182;28;20568;-72
2022/04/03 04:24:23;;;;;;;6.72;1.73;;;-0.20;99.90;;;;;;5075817;28;20568;-72
2022/04/03 04:26:49;;;;;;;3.65;2.05;;;-0.30;99.90;;;;;;5091575;28;20123;-72
2022/04/03 04:29:15;;;;;;;4.22;2.35;;;-0.30;99.90;;;;;;5093255;28;20048;-72
2022/04/03 04:31:41;;;;;;;6.25;2.28;;;-0.30;99.90;;;;;;5092192;28;20055;-72
2022/04/03 04:34:07;;;;;;;3.33;1.90;;;-0.40;99.90;;;;;;5090987;28;20052;-72
2022/04/03 04:36:33;;;;;;;5.30;2.15;;;-0.40;99.90;;;;;;5092304;28;20127;-72
2022/04/03 04:38:59;;;;;;;4.03;1.85;;;-0.40;99.90;;;;;;5093080;28;20040;-72
2022/04/03 04:41:25;;;;;;;4.93;2.00;;;0.10;99.90;;;;;;5092674;28;20040;-72
2022/04/03 04:43:50;;;;;;;3.95;2.00;;;-0.40;99.90;;;;;;5093006;28;20051;-72
2022/04/03 04:46:16;;;;;;;8.70;2.00;;;-0.40;99.90;;;;;;5093171;28;20365;-72
2022/04/03 04:48:42;;;;;;;3.75;2.03;;;-0.50;99.90;;;;;;5092461;28;20044;-72
2022/04/03 04:51:09;;;;;;;7.00;1.55;;;-0.50;99.90;;;;;;5095087;28;20032;-72
2022/04/03 04:53:35;;;;;;;3.40;1.60;;;-0.60;99.90;;;;;;5113314;28;20054;-72
2022/04/03 04:56:01;;;;;;;4.60;1.88;;;-0.60;99.90;;;;;;5094256;28;20101;-72
2022/04/03 04:58:28;;;;;;;3.33;1.95;;;-0.60;99.90;;;;;;5113271;28;20114;-72
2022/04/03 05:00:54;;;;;;;5.55;2.42;;;-0.60;99.90;;;;;;5113449;28;20471;-72
2022/04/03 05:03:19;;;;;;;5.80;2.00;;;-0.60;99.90;;;;;;5112106;28;20093;-72
2022/04/03 05:05:46;;;;;;;5.10;2.17;;;-0.60;99.90;;;;;;5095588;28;20122;-72
2022/04/03 05:08:12;;;;;;;6.55;2.05;;;-0.60;99.90;;;;;;5113339;28;20031;-72
2022/04/03 05:10:38;;;;;;;4.85;2.03;;;-0.60;99.90;;;;;;5094181;28;20059;-72
2022/04/03 05:13:09;;;;;;;3.17;1.48;;;-0.60;99.90;;;;;;5095213;28;20039;-72
2022/04/03 05:15:35;;;;;;;5.85;2.25;;;-0.60;99.90;;;;;;5094426;28;20040;-72
2022/04/03 05:18:01;;;;;;;3.45;1.83;;;-0.70;99.90;;;;;;5095038;28;20134;-72
2022/04/03 05:20:27;;;;;;;2.85;1.85;;;-0.60;99.90;;;;;;5095504;28;20450;-72
2022/04/03 05:22:53;;;;;;;3.65;1.95;;;-0.60;99.90;;;;;;5112201;28;20465;-72
2022/04/03 05:25:19;;;;;;;3.13;1.85;;;-0.70;99.90;;;;;;5113023;28;20123;-72
2022/04/03 05:27:45;;;;;;;2.67;1.98;;;-0.70;99.90;;;;;;5113325;28;20043;-72
2022/04/03 05:30:12;;;;;;;2.97;1.92;;;-0.70;99.90;;;;;;5077568;28;20039;-72
2022/04/03 05:32:38;;;;;;;2.58;1.58;;;-0.60;99.90;;;;;;5116739;28;20043;-72
2022/04/03 05:35:06;;;;;;;4.05;2.40;;;-0.60;99.90;;;;;;5116811;28;20036;-72
2022/04/03 05:37:32;;;;;;;6.72;3.30;;;-0.60;99.90;;;;;;5116261;28;20056;-72
2022/04/03 05:39:58;;;;;;;6.03;3.42;;;-0.60;99.90;;;;;;5116497;28;20200;-72
2022/04/03 05:42:23;;;;;;;5.80;2.25;;;-0.60;99.90;;;;;;5116970;28;20433;-72
2022/04/03 05:44:49;;;;;;;6.45;1.88;;;-0.60;99.90;;;;;;5115797;28;20048;-72
2022/04/03 05:47:19;;;;;;;5.07;2.13;;;-0.50;99.90;;;;;;5116882;28;20093;-72
2022/04/03 05:49:46;;;;;;;5.10;1.55;;;-0.50;99.90;;;;;;5098371;28;20406;-72
2022/04/03 05:52:12;;;;;;;4.82;1.90;;;-0.40;99.90;;;;;;5114936;28;20078;-72
2022/04/03 05:54:38;;;;;;;6.30;2.40;;;-0.30;99.90;;;;;;5115864;28;20048;-72
2022/04/03 05:57:04;;;;;;;7.07;1.77;;;-0.30;99.90;;;;;;5094662;28;20044;-72
2022/04/03 05:59:32;;;;;;;3.72;1.60;;;-0.20;99.90;;;;;;5095498;28;20048;-72
2022/04/03 06:01:58;;;;;;;8.38;1.67;;;-0.10;99.90;;;;;;5107993;28;20495;-72
2022/04/03 06:04:23;;;;;;;3.58;1.20;;;0.00;99.90;;;;;;5098243;28;20082;-72
2022/04/03 06:06:49;;;;;;;2.58;1.65;;;0.00;99.90;;;;;;5115657;28;20079;-72
2022/04/03 06:09:15;;;;;;;5.47;1.90;;;0.10;99.90;;;;;;5081122;28;20607;-72
2022/04/03 06:11:41;;;;;;;4.68;1.67;;;0.10;99.90;;;;;;5116189;28;20039;-72
2022/04/03 06:14:07;;;;;;;1.60;1.10;;;0.20;99.90;;;;;;5085038;28;20044;-72
2022/04/03 06:16:33;;;;;;;1.98;1.50;;;0.30;99.90;;;;;;5097494;28;20051;-72
2022/04/03 06:18:59;;;;;;;3.63;1.55;;;0.40;99.90;;;;;;5111536;28;20047;-72
2022/04/03 06:21:25;;;;;;;6.28;1.65;;;0.50;99.90;;;;;;5115683;28;20051;-72
2022/04/03 06:23:51;;;;;;;2.72;1.50;;;0.60;99.90;;;;;;5115661;28;20044;-72
2022/04/03 06:26:16;;;;;;;3.80;2.10;;;0.70;99.90;;;;;;5114950;28;20126;-72
2022/04/03 06:28:42;;;;;;;4.70;1.48;;;0.80;99.90;;;;;;5096842;28;20047;-72
2022/04/03 06:31:08;;;;;;;3.58;1.65;;;0.90;99.90;;;;;;5097530;28;20051;-72
2022/04/03 06:33:34;;;;;;;2.78;1.50;;;1.00;99.90;;;;;;5114674;28;20050;-72
2022/04/03 06:36:02;;;;;;;4.15;1.52;;;1.10;99.90;;;;;;5115518;28;20498;-72
2022/04/03 06:38:28;;;;;;;4.10;1.08;;;1.20;99.90;;;;;;5097022;28;20108;-72
2022/04/03 06:40:57;;;;;;;4.30;1.38;;;1.30;99.90;;;;;;5114083;28;20031;-72
2022/04/03 06:43:28;;;;;;;5.57;1.73;;;1.40;99.90;;;;;;5114465;28;20047;-72
2022/04/03 06:45:55;;;;;;;5.65;1.60;;;1.40;99.90;;;;;;5097191;28;20122;-72
2022/04/03 06:48:23;;;;;;;4.97;1.42;;;1.50;99.90;;;;;;5114373;28;20051;-72
2022/04/03 06:50:49;;;;;;;7.03;1.40;;;1.50;99.90;;;;;;5114678;28;20063;-72
2022/04/03 06:53:15;;;;;;;4.13;1.15;;;1.50;99.90;;;;;;5114685;28;20047;-72
2022/04/03 06:55:41;;;;;;;6.45;1.40;;;1.50;99.90;;;;;;5114104;28;20067;-72
2022/04/03 06:58:07;;;;;;;6.30;1.38;;;1.60;99.90;;;;;;5097013;28;20039;-72
2022/04/03 07:00:37;;;;;;;2.05;1.30;;;1.60;99.90;;;;;;5096956;28;20437;-72
2022/04/03 07:03:04;;;;;;;2.38;1.10;;;1.60;99.90;;;;;;5095730;28;20043;-72
2022/04/03 07:05:29;;;;;;;5.30;1.40;;;1.60;99.90;;;;;;5096438;28;20067;-72
2022/04/03 07:07:55;;;;;;;2.95;1.30;;;1.60;99.90;;;;;;5114664;28;20082;-72
2022/04/03 07:10:21;;;;;;;2.60;1.10;;;1.70;99.90;;;;;;5114067;28;20032;-72
2022/04/03 07:12:47;;;;;;;6.60;1.30;;;1.80;99.90;;;;;;5114742;28;20051;-72
2022/04/03 07:15:13;;;;;;;6.97;1.27;;;1.90;99.90;;;;;;5095319;28;20092;-72
2022/04/03 07:17:40;;;;;;;2.92;1.67;;;2.10;99.90;;;;;;5096568;28;20050;-72
2022/04/03 07:20:07;;;;;;;11.80;1.70;;;2.20;99.90;;;;;;5096025;28;20120;-72
2022/04/03 07:22:33;;;;;;;7.38;1.60;;;2.30;99.90;;;;;;5095505;28;20176;-72
2022/04/03 07:24:58;;;;;;;6.40;1.38;;;2.50;99.90;;;;;;5095930;28;20511;-72
2022/04/03 07:27:24;;;;;;;7.15;1.73;;;2.60;99.90;;;;;;5096109;28;20048;-72
2022/04/03 07:29:50;;;;;;;3.17;1.58;;;2.80;99.90;;;;;;5061959;28;20044;-72
2022/04/03 07:32:16;;;;;;;3.00;1.30;;;2.90;99.90;;;;;;5114202;28;20143;-72
2022/04/03 07:34:41;;;;;;;3.35;1.27;;;3.10;99.90;;;;;;5114004;28;20475;-71
2022/04/03 07:37:07;;;;;;;13.27;2.25;;;3.30;99.90;;;;;;5095280;28;20051;-71
2022/04/03 07:39:33;;;;;;;8.05;1.45;;;3.50;99.90;;;;;;5095692;28;20036;-72
2022/04/03 07:41:59;;;;;;;2.25;1.05;;;3.60;99.90;;;;;;5095809;28;20040;-72
2022/04/03 07:44:25;;;;;;;4.32;1.20;;;3.80;99.90;;;;;;5113442;28;20040;-72
2022/04/03 07:46:51;;;;;;;5.07;1.20;;;4.10;99.90;;;;;;5114072;28;20040;-72
2022/04/03 07:49:16;;;;;;;5.85;1.30;;;4.30;99.90;;;;;;5095780;28;20054;-72
2022/04/03 07:51:42;;;;;;;11.02;2.60;;;4.40;99.90;;;;;;5112763;28;20051;-72
2022/04/03 07:54:08;;;;;;;1.90;1.08;;;4.70;99.90;;;;;;5095616;28;20505;-72
2022/04/03 07:56:35;;;;;;;6.03;1.05;;;4.80;99.90;;;;;;5095675;28;20039;-72
2022/04/03 07:59:03;;;;;;;2.75;1.63;;;4.90;99.90;;;;;;5094648;28;20058;-72
2022/04/03 08:01:29;;;;;;;4.72;2.15;;;5.10;99.90;;;;;;5095329;28;20505;-72
2022/04/03 08:03:55;;;;;;;4.45;1.00;;;5.20;99.90;;;;;;5113733;28;20040;-72
2022/04/03 08:06:21;;;;;;;3.03;1.58;;;5.20;99.90;;;;;;5094462;28;20051;-72
2022/04/03 08:08:46;;;;;;;2.33;1.05;;;5.40;99.90;;;;;;5078588;28;20059;-72
2022/04/03 08:11:12;;;;;;;4.80;0.90;;;5.50;99.90;;;;;;5095081;28;20035;-72
2022/04/03 08:13:38;;;;;;;3.10;0.88;;;5.60;99.90;;;;;;5113344;28;20040;-71
2022/04/03 08:16:04;;;;;;;6.05;1.52;;;5.60;99.90;;;;;;5095242;28;20114;-72
2022/04/03 08:18:30;;;;;;;6.82;1.10;;;5.60;99.90;;;;;;5094551;28;20042;-71
2022/04/03 08:20:56;;;;;;;3.45;1.10;;;5.70;99.90;;;;;;5095335;28;20043;-72
2022/04/03 08:23:21;;;;;;;4.65;0.90;;;5.70;99.90;;;;;;5095462;28;20083;-71
2022/04/03 08:25:48;;;;;;;4.15;0.68;;;5.80;99.90;;;;;;5078110;28;20471;-72
2022/04/03 08:28:16;;;;;;;3.17;0.80;;;5.90;99.90;;;;;;5093794;28;20506;-72
2022/04/03 08:30:42;;;;;;;6.10;0.73;;;6.00;99.90;;;;;;5113095;28;20108;-72
2022/04/03 08:33:10;;;;;;;2.38;0.70;;;6.20;99.90;;;;;;5094492;28;20070;-72
2022/04/03 08:35:40;;;;;;;2.03;0.75;;;6.30;99.90;;;;;;5113402;28;20047;-72
2022/04/03 08:38:07;;;;;;;3.67;1.15;;;6.30;99.90;;;;;;5095835;28;20054;-72
2022/04/03 08:40:35;;;;;;;3.97;1.08;;;6.20;99.90;;;;;;5078205;28;20126;-72
2022/04/03 08:43:02;;;;;;;2.97;0.73;;;6.20;99.90;;;;;;5113427;28;20364;-72
2022/04/03 08:45:29;;;;;;;2.75;0.63;;;6.20;99.90;;;;;;5113710;28;20035;-72
2022/04/03 08:48:00;;;;;;;4.20;0.75;;;6.20;99.90;;;;;;5094320;28;20400;-72
2022/04/03 08:50:33;;;;;;;4.75;0.98;;;6.20;99.90;;;;;;5095025;28;20035;-72
2022/04/03 08:53:02;;;;;;;3.50;0.82;;;6.20;99.90;;;;;;5078572;28;20062;-72
2022/04/03 08:55:28;;;;;;;1.85;0.70;;;6.20;99.90;;;;;;5093698;28;20379;-72
2022/04/03 08:57:54;;;;;;;3.60;0.85;;;6.50;99.90;;;;;;5095366;28;20399;-72
2022/04/03 09:00:22;;;;;;;1.40;0.57;;;6.60;99.90;;;;;;5095336;28;20048;-72
2022/04/03 09:02:50;;;;;;;1.85;0.50;;;6.50;99.90;;;;;;5094510;28;20436;-72
2022/04/03 09:05:17;;;;;;;1.17;0.47;;;6.50;99.90;;;;;;5113569;28;20048;-72
2022/04/03 09:07:43;;;;;;;3.17;0.90;;;6.50;99.90;;;;;;5094832;28;20127;-72
2022/04/03 09:10:13;;;;;;;1.52;0.60;;;6.60;99.90;;;;;;5079096;28;20127;-72
2022/04/03 09:12:47;;;;;;;3.78;1.05;;;6.60;99.90;;;;;;5113590;28;20038;-72
2022/04/03 09:15:15;;;;;;;1.92;0.70;;;6.70;99.90;;;;;;5116323;28;20547;-72
2022/04/03 09:17:44;;;;;;;2.55;0.80;;;6.70;99.90;;;;;;5117366;28;20122;-72
2022/04/03 09:20:12;;;;;;;4.13;0.80;;;6.80;99.90;;;;;;5098788;28;20386;-72
2022/04/03 09:22:40;;;;;;;1.73;0.50;;;6.90;99.90;;;;;;5115959;28;20525;-72
2022/04/03 09:25:09;;;;;;;3.30;0.95;;;6.90;99.90;;;;;;5117214;28;20413;-72
2022/04/03 09:27:57;;;;;;;1.50;0.52;;;7.10;99.90;;;;;;5116613;28;20055;-72
2022/04/03 09:30:34;;;;;;;2.47;0.80;;;7.30;99.90;;;;;;5094557;28;20119;-72
2022/04/03 09:33:01;;;;;;;6.57;0.82;;;7.50;99.90;;;;;;5101898;28;20085;-72
2022/04/03 09:35:28;;;;;;;2.85;1.17;;;7.60;99.90;;;;;;5099129;28;20059;-72
2022/04/03 09:38:14;;;;;;;4.97;0.70;;;7.60;99.90;;;;;;5097565;28;20039;-72
2022/04/03 09:40:45;;;;;;;1.88;0.70;;;7.50;99.90;;;;;;5078260;28;20517;-72
2022/04/03 09:43:15;;;;;;;2.28;0.50;;;7.40;99.90;;;;;;5085367;28;20051;-72
2022/04/03 09:46:00;;;;;;;1.20;0.50;;;7.30;99.90;;;;;;5098683;28;20126;-72
2022/04/03 09:48:28;;;;;;;4.20;0.70;;;7.10;99.90;;;;;;5116417;28;20517;-72
2022/04/03 09:51:05;;;;;;;4.65;0.70;;;7.10;99.90;;;;;;5080849;28;20056;-72
2022/04/03 09:53:48;;;;;;;2.97;0.50;;;7.30;99.90;;;;;;5081207;28;20035;-72
2022/04/03 09:56:31;;;;;;;0.40;0.40;;;7.60;99.90;;;;;;5098605;28;20062;-72
2022/04/03 09:59:03;;;;;;;2.90;0.70;;;7.70;99.90;;;;;;5115774;28;20046;-72
2022/04/03 10:01:35;;;;;;;3.78;0.88;;;7.70;99.90;;;;;;5116559;28;20051;-72
2022/04/03 10:04:07;;;;;;;3.95;0.80;;;7.80;99.90;;;;;;5115473;28;20040;-72
2022/04/03 10:06:34;;;;;;;2.58;1.05;;;7.80;99.90;;;;;;5081404;28;20035;-72
2022/04/03 10:09:01;;;;;;;5.43;0.68;;;7.80;99.90;;;;;;5077805;28;20117;-72
2022/04/03 10:11:29;;;;;;;2.00;0.70;;;7.80;99.90;;;;;;5076939;28;20040;-72
2022/04/03 10:13:55;;;;;;;3.60;1.05;;;7.60;99.90;;;;;;5094408;28;20509;-72
2022/04/03 10:16:22;;;;;;;5.10;0.93;;;7.50;99.90;;;;;;5116430;28;20039;-72
2022/04/03 10:18:49;;;;;;;4.78;0.90;;;7.50;99.90;;;;;;5078813;28;20506;-72
2022/04/03 10:21:17;;;;;;;2.90;0.70;;;7.40;99.90;;;;;;5081034;28;20100;-72
2022/04/03 10:23:45;;;;;;;4.38;0.68;;;7.50;99.90;;;;;;5094418;28;20044;-71
2022/04/03 10:26:16;;;;;;;3.70;0.50;;;7.80;99.90;;;;;;5076618;28;20495;-72
2022/04/03 10:28:49;;;;;;;3.10;0.55;;;8.00;99.90;;;;;;5093267;28;20059;-72
2022/04/03 10:31:18;;;;;;;4.80;0.68;;;8.20;99.90;;;;;;5116010;28;20132;-72
2022/04/03 10:33:48;;;;;;;2.83;0.43;;;8.50;99.90;;;;;;5096213;28;20053;-72
2022/04/03 10:36:17;;;;;;;0.82;0.60;;;8.80;99.90;;;;;;5115854;28;20395;-72
2022/04/03 10:38:45;;;;;;;2.72;0.55;;;9.00;99.90;;;;;;5115714;28;20053;-72
2022/04/03 10:41:31;;;;;;;6.90;0.70;;;9.30;99.90;;;;;;5096948;28;20047;-72
2022/04/03 10:44:11;;;;;;;1.00;0.40;;;9.30;99.90;;;;;;5077494;28;20048;-72
2022/04/03 10:47:02;;;;;;;2.47;0.47;;;8.90;99.90;;;;;;5086389;28;20052;-78
2022/04/03 10:49:46;;;;;;;1.88;0.50;;;8.40;99.90;;;;;;5097009;28;20122;-79
2022/04/03 10:52:36;;;;;;;1.10;0.30;;;7.70;99.90;;;;;;5095353;28;20561;-79
2022/04/03 10:55:15;;;;;;;0.47;0.35;;;7.00;99.90;;;;;;5072885;28;20079;-79
2022/04/03 10:57:51;;;;;;;1.08;0.40;;;6.60;99.90;;;;;;5090704;28;20080;-79
2022/04/03 11:00:17;;;;;;;0.98;0.43;;;6.30;99.90;;;;;;5076242;28;20058;-78
2022/04/03 11:02:44;;;;;;;0.88;0.40;;;6.00;99.90;;;;;;5093483;28;20043;-79
2022/04/03 11:05:22;;;;;;;2.05;0.40;;;5.70;99.90;;;;;;5093971;28;20058;-78
2022/04/03 11:07:48;;;;;;;2.95;0.70;;;5.60;99.90;;;;;;5093554;28;20105;-78
2022/04/03 11:10:15;;;;;;;2.20;0.45;;;5.40;99.90;;;;;;5093035;28;20044;-80
2022/04/03 11:12:54;;;;;;;0.90;0.52;;;5.30;99.90;;;;;;5093734;28;20051;-79
2022/04/03 11:15:20;;;;;;;3.67;0.80;;;5.20;99.90;;;;;;5065555;28;20487;-80
2022/04/03 11:17:53;;;;;;;4.30;0.80;;;5.20;99.90;;;;;;5080552;28;20518;-80
2022/04/03 11:20:39;;;;;;;2.35;1.00;;;5.30;99.90;;;;;;5081497;28;20044;-80
2022/04/03 11:23:09;;;;;;;3.13;0.70;;;5.50;99.90;;;;;;5088244;28;20118;-80
2022/04/03 11:25:35;;;;;;;1.77;0.75;;;5.50;99.90;;;;;;5094607;28;20119;-80
2022/04/03 11:28:02;;;;;;;4.88;0.73;;;5.60;99.90;;;;;;5094324;28;20127;-80
2022/04/03 11:30:29;;;;;;;1.67;0.50;;;5.50;99.90;;;;;;5093443;28;20040;-80
2022/04/03 11:32:56;;;;;;;4.30;0.50;;;5.50;99.90;;;;;;5094004;28;20036;-81
2022/04/03 11:35:33;;;;;;;3.08;0.60;;;5.40;99.90;;;;;;5075172;28;20043;-81
2022/04/03 11:37:59;;;;;;;0.98;0.55;;;5.30;99.90;;;;;;5091394;28;20048;-82
2022/04/03 11:40:25;;;;;;;7.50;1.35;;;5.30;99.90;;;;;;5094433;28;20101;-81
2022/04/03 11:43:09;;;;;;;1.27;0.50;;;5.30;99.90;;;;;;5090012;28;20086;-81
2022/04/03 11:45:35;;;;;;;2.08;0.55;;;5.50;99.90;;;;;;5092991;28;20044;-81
2022/04/03 11:48:21;;;;;;;1.85;0.57;;;5.60;99.90;;;;;;5093816;28;20077;-81
2022/04/03 11:50:49;;;;;;;3.35;0.65;;;5.90;99.90;;;;;;5093385;28;20043;-80
2022/04/03 11:53:16;;;;;;;1.95;0.70;;;6.10;99.90;;;;;;5113176;28;20426;-79
2022/04/03 11:55:41;;;;;;;1.27;0.77;;;6.20;99.90;;;;;;5114277;28;20107;-80
2022/04/03 11:58:30;;;;;;;3.58;0.60;;;6.40;99.90;;;;;;5094871;28;20043;-75
2022/04/03 12:00:58;;;;;;;3.20;0.88;;;6.60;99.90;;;;;;5114486;28;20059;-76
2022/04/03 12:03:28;;;;;;;3.60;0.80;;;6.80;99.90;;;;;;5113896;28;20048;-76
2022/04/03 12:06:10;;;;;;;2.95;0.73;;;7.20;99.90;;;;;;5113918;28;20044;-76
2022/04/03 12:08:40;;;;;;;1.85;0.70;;;7.40;99.90;;;;;;5095532;28;20048;-76
2022/04/03 12:11:26;;;;;;;5.40;1.65;;;7.70;99.90;;;;;;5113190;28;20082;-76
2022/04/03 12:14:04;;;;;;;2.50;0.68;;;8.00;99.90;;;;;;5095319;28;20551;-76
2022/04/03 12:16:37;;;;;;;4.72;0.70;;;8.30;99.90;;;;;;5113982;28;20036;-76
2022/04/03 12:19:04;;;;;;;6.70;0.85;;;8.40;99.90;;;;;;5113063;28;20122;-75
2022/04/03 12:21:40;;;;;;;3.97;0.60;;;8.60;99.90;;;;;;5113325;28;20032;-76
2022/04/03 12:24:10;;;;;;;3.20;0.80;;;8.60;99.90;;;;;;5095272;28;20043;-75
2022/04/03 12:26:36;;;;;;;1.45;0.52;;;8.80;99.90;;;;;;5077053;28;20043;-76
2022/04/03 12:29:07;;;;;;;4.32;0.73;;;9.00;99.90;;;;;;5078223;28;20055;-75
2022/04/03 12:31:35;;;;;;;1.55;1.02;;;9.20;99.90;;;;;;5112379;28;20098;-76
2022/04/03 12:34:16;;;;;;;2.25;0.65;;;9.00;99.90;;;;;;5113694;28;20473;-76
2022/04/03 12:36:46;;;;;;;3.80;0.80;;;8.90;99.90;;;;;;5112084;28;20043;-75
2022/04/03 12:39:34;;;;;;;2.60;0.50;;;8.80;99.90;;;;;;5112048;28;20047;-75
2022/04/03 12:42:26;;;;;;;2.53;0.57;;;8.90;99.90;;;;;;5115948;28;20048;-75
2022/04/03 12:44:55;;;;;;;1.10;0.57;;;9.10;99.90;;;;;;5098895;28;20040;-75
2022/04/03 12:47:30;;;;;;;0.30;0.17;;;9.20;99.90;;;;;;5098925;28;20582;-75
2022/04/03 12:50:05;;;;;;;2.72;1.05;;;9.20;99.90;;;;;;5098534;28;20503;-75
2022/04/03 12:52:40;;;;;;;;;;;9.00;99.90;;;;;;5118239;28;20083;-75
2022/04/03 12:55:27;;;;;;;1.42;0.38;;;8.80;99.90;;;;;;5115982;28;20021;-75
2022/04/03 13:00:54;;;;;;;1.65;0.60;;;8.50;99.90;;;;;;5117080;28;20420;-75
2022/04/03 13:03:34;;;;;;;2.30;0.50;;;8.50;99.60;;;;;;5098868;28;20051;-75